Time;durP1;ratioP1;P1;durP2;ratioP2;P2;SDS_P1;SDS_P2;PMS_P1;PMS_P2;Temp;Humidity;BMP_temperature;BMP_pressure;BME280_temperature;BME280_humidity;BME280_pressure;Samples;Min_cycle;Max_cycle;Signal;HPM_P1;HPM_P2
2023/06/30 00:02:12;;;;;;;15.10;9.48;;;19.70;99.90;;;;;;5023746;28;20024;-79
2023/06/30 00:04:38;;;;;;;9.57;8.45;;;19.80;99.90;;;;;;5018639;28;20462;-79
2023/06/30 00:07:05;;;;;;;13.88;9.48;;;19.80;99.90;;;;;;5024417;28;20033;-78
2023/06/30 00:09:31;;;;;;;14.27;9.25;;;19.70;99.90;;;;;;5027067;28;20376;-78
2023/06/30 00:11:57;;;;;;;18.85;9.27;;;19.70;99.90;;;;;;5018966;28;20105;-76
2023/06/30 00:14:23;;;;;;;12.82;9.30;;;19.70;99.90;;;;;;5023785;28;20397;-78
2023/06/30 00:16:49;;;;;;;12.77;10.63;;;19.70;99.90;;;;;;5019452;28;20022;-77
2023/06/30 00:19:19;;;;;;;9.60;8.38;;;19.70;99.90;;;;;;5024330;28;20501;-74
2023/06/30 00:21:45;;;;;;;9.43;7.53;;;19.70;99.90;;;;;;5018787;28;20373;-73
2023/06/30 00:24:13;;;;;;;13.02;9.02;;;19.60;99.90;;;;;;5026204;28;20024;-73
2023/06/30 00:26:39;;;;;;;12.18;7.90;;;19.60;99.90;;;;;;5021723;28;20054;-73
2023/06/30 00:29:06;;;;;;;7.72;6.95;;;19.60;99.90;;;;;;5014261;28;20155;-70
2023/06/30 00:31:31;;;;;;;8.13;7.22;;;19.60;99.90;;;;;;5020440;28;20089;-73
2023/06/30 00:33:57;;;;;;;10.75;7.15;;;19.50;99.90;;;;;;5026195;28;20482;-69
2023/06/30 00:36:23;;;;;;;14.18;8.23;;;19.50;99.90;;;;;;5024204;28;20045;-73
2023/06/30 00:38:51;;;;;;;10.48;7.18;;;19.50;99.90;;;;;;5021563;28;20018;-66
2023/06/30 00:41:18;;;;;;;12.57;7.40;;;19.50;99.90;;;;;;5021867;28;20094;-72
2023/06/30 00:43:43;;;;;;;12.05;8.00;;;19.50;99.90;;;;;;5018296;28;20029;-73
2023/06/30 00:46:12;;;;;;;10.90;7.25;;;19.40;99.90;;;;;;5019921;28;20386;-69
2023/06/30 00:48:38;;;;;;;8.80;6.97;;;19.40;99.90;;;;;;5021799;28;20670;-75
2023/06/30 00:51:05;;;;;;;12.15;8.10;;;19.40;99.90;;;;;;5018674;28;20026;-70
2023/06/30 00:53:30;;;;;;;12.77;7.38;;;19.40;99.90;;;;;;5018532;28;20468;-76
2023/06/30 00:55:57;;;;;;;9.18;7.70;;;19.30;99.90;;;;;;5021166;28;20045;-75
2023/06/30 00:58:23;;;;;;;13.43;7.47;;;19.30;99.90;;;;;;5020887;28;20057;-77
2023/06/30 01:00:53;;;;;;;9.80;7.43;;;19.30;99.90;;;;;;5019681;28;20500;-72
2023/06/30 01:03:26;;;;;;;11.00;6.82;;;19.20;99.90;;;;;;5018730;28;20014;-67
2023/06/30 01:06:00;;;;;;;9.27;7.22;;;19.20;99.90;;;;;;5022025;28;20056;-72
2023/06/30 01:08:42;;;;;;;10.80;7.57;;;19.20;99.90;;;;;;5017967;28;20033;-75
2023/06/30 01:11:09;;;;;;;10.75;7.43;;;19.20;99.90;;;;;;5015291;28;20018;-76
2023/06/30 01:13:35;;;;;;;10.10;7.10;;;19.10;99.90;;;;;;5023860;28;20021;-71
2023/06/30 01:16:04;;;;;;;8.52;7.50;;;19.10;99.90;;;;;;5019199;28;20045;-76
2023/06/30 01:18:32;;;;;;;9.85;7.15;;;19.10;99.90;;;;;;5016095;28;20029;-70
2023/06/30 01:20:59;;;;;;;12.32;8.35;;;19.10;99.90;;;;;;5023527;28;20060;-77
2023/06/30 01:23:38;;;;;;;11.45;8.07;;;19.00;99.90;;;;;;5023261;28;20446;-72
2023/06/30 01:26:06;;;;;;;9.05;7.72;;;19.00;99.90;;;;;;5018697;28;20022;-71
2023/06/30 01:28:35;;;;;;;8.35;6.78;;;19.00;99.90;;;;;;5014695;28;20026;-73
2023/06/30 01:31:01;;;;;;;11.13;8.20;;;19.00;99.90;;;;;;5016325;28;20060;-73
2023/06/30 01:33:28;;;;;;;13.27;8.05;;;18.90;99.90;;;;;;5021635;28;20053;-72
2023/06/30 01:35:54;;;;;;;9.13;7.78;;;18.80;99.90;;;;;;5021720;28;20038;-71
2023/06/30 01:38:20;;;;;;;12.77;7.90;;;18.80;99.90;;;;;;5017978;28;20771;-69
2023/06/30 01:40:46;;;;;;;12.68;8.85;;;18.80;99.90;;;;;;5016334;28;20026;-72
2023/06/30 01:43:13;;;;;;;10.43;8.32;;;18.80;99.90;;;;;;5016039;28;20026;-76
2023/06/30 01:45:40;;;;;;;9.63;7.65;;;18.90;99.90;;;;;;5021950;28;20496;-74
2023/06/30 01:48:06;;;;;;;12.50;8.80;;;18.90;99.90;;;;;;5021009;28;20028;-75
2023/06/30 01:50:33;;;;;;;10.43;8.63;;;18.80;99.90;;;;;;5018961;28;20022;-74
2023/06/30 01:52:59;;;;;;;10.57;8.10;;;18.80;99.90;;;;;;5023841;28;20033;-68
2023/06/30 01:55:26;;;;;;;9.50;8.20;;;18.80;99.90;;;;;;5021287;28;20462;-72
2023/06/30 01:57:52;;;;;;;9.27;8.25;;;18.80;99.90;;;;;;5019234;28;20022;-76
2023/06/30 02:00:18;;;;;;;8.95;7.72;;;18.80;99.90;;;;;;5017208;28;20036;-71
2023/06/30 02:02:44;;;;;;;15.10;8.32;;;18.80;99.90;;;;;;5022193;28;20025;-73
2023/06/30 02:05:11;;;;;;;10.38;8.35;;;18.70;99.90;;;;;;5021332;28;20022;-70
2023/06/30 02:07:36;;;;;;;12.98;8.48;;;18.70;99.90;;;;;;5020966;28;20466;-77
2023/06/30 02:10:02;;;;;;;12.63;9.00;;;18.70;99.90;;;;;;5021038;28;20033;-77
2023/06/30 02:12:28;;;;;;;12.80;8.68;;;18.70;99.90;;;;;;5013064;28;20098;-77
2023/06/30 02:14:54;;;;;;;9.93;8.45;;;18.60;99.90;;;;;;5020294;28;20037;-72
2023/06/30 02:17:33;;;;;;;12.30;9.10;;;18.70;99.90;;;;;;5020920;28;20484;-75
2023/06/30 02:20:00;;;;;;;12.30;9.00;;;18.60;99.90;;;;;;5011848;28;20486;-76
2023/06/30 02:22:26;;;;;;;11.02;8.30;;;18.70;99.90;;;;;;5022244;28;20028;-69
2023/06/30 02:24:53;;;;;;;12.98;8.65;;;18.60;99.90;;;;;;5027099;28;20037;-69
2023/06/30 02:27:19;;;;;;;12.10;8.15;;;18.60;99.90;;;;;;5021519;28;20017;-74
2023/06/30 02:29:45;;;;;;;10.70;8.20;;;18.60;99.90;;;;;;5019140;28;20549;-77
2023/06/30 02:32:10;;;;;;;10.95;8.43;;;18.60;99.90;;;;;;5028471;28;20067;-78
2023/06/30 02:34:36;;;;;;;11.75;10.02;;;18.60;99.90;;;;;;5023193;28;20025;-78
2023/06/30 02:37:02;;;;;;;14.20;8.48;;;18.50;99.90;;;;;;5016247;28;20034;-72
2023/06/30 02:39:27;;;;;;;14.30;8.55;;;18.50;99.90;;;;;;5023647;28;20037;-77
2023/06/30 02:41:53;;;;;;;15.45;8.40;;;18.50;99.90;;;;;;5017917;28;20033;-74
2023/06/30 02:44:19;;;;;;;12.48;7.70;;;18.50;99.90;;;;;;5022571;28;20359;-78
2023/06/30 02:46:45;;;;;;;10.55;8.77;;;18.50;99.90;;;;;;5027797;28;20096;-73
2023/06/30 02:49:11;;;;;;;14.57;8.50;;;18.50;99.90;;;;;;5021786;28;20028;-77
2023/06/30 02:51:37;;;;;;;15.23;8.88;;;18.50;99.90;;;;;;5017753;28;20030;-73
2023/06/30 02:54:03;;;;;;;13.82;8.15;;;18.60;99.90;;;;;;5020797;28;20025;-76
2023/06/30 02:56:29;;;;;;;10.50;7.55;;;18.50;99.90;;;;;;5023281;28;20053;-79
2023/06/30 02:58:54;;;;;;;11.95;7.78;;;18.50;99.90;;;;;;5020209;28;20066;-73
2023/06/30 03:01:24;;;;;;;8.98;7.93;;;18.50;99.90;;;;;;5019264;28;20477;-78
2023/06/30 03:03:50;;;;;;;12.48;7.35;;;18.50;99.90;;;;;;5028653;28;20052;-76
2023/06/30 03:06:15;;;;;;;13.48;7.60;;;18.50;99.90;;;;;;5020853;28;20072;-77
2023/06/30 03:08:42;;;;;;;12.13;7.68;;;18.40;99.90;;;;;;5023228;28;20025;-70
2023/06/30 03:11:07;;;;;;;15.52;8.10;;;18.40;99.90;;;;;;5021244;28;20042;-78
2023/06/30 03:13:33;;;;;;;15.63;8.02;;;18.40;99.90;;;;;;5019211;28;20023;-78
2023/06/30 03:15:59;;;;;;;11.70;7.45;;;18.40;99.90;;;;;;5025923;28;20481;-77
2023/06/30 03:18:25;;;;;;;8.65;7.78;;;18.40;99.90;;;;;;5022316;28;20029;-72
2023/06/30 03:20:51;;;;;;;10.18;7.93;;;18.40;99.90;;;;;;5015495;28;20033;-78
2023/06/30 03:23:19;;;;;;;14.35;9.32;;;18.40;99.90;;;;;;5023537;28;20019;-73
2023/06/30 03:25:44;;;;;;;10.30;8.05;;;18.30;99.90;;;;;;5023021;28;20036;-76
2023/06/30 03:28:10;;;;;;;14.98;8.75;;;18.30;99.90;;;;;;5015586;28;20018;-75
2023/06/30 03:30:36;;;;;;;11.82;9.32;;;18.30;99.90;;;;;;5016772;28;20025;-76
2023/06/30 03:33:01;;;;;;;11.10;8.27;;;18.20;99.90;;;;;;5024621;28;20094;-73
2023/06/30 03:35:27;;;;;;;11.95;7.90;;;18.20;99.90;;;;;;5019180;28;20050;-78
2023/06/30 03:37:53;;;;;;;12.23;8.70;;;18.20;99.90;;;;;;5017650;28;20033;-74
2023/06/30 03:40:18;;;;;;;14.27;8.60;;;18.20;99.90;;;;;;5021569;28;20501;-77
2023/06/30 03:42:44;;;;;;;13.85;8.98;;;18.20;99.90;;;;;;5020043;28;20022;-78
2023/06/30 03:45:10;;;;;;;16.10;9.00;;;18.20;99.90;;;;;;5023318;28;20381;-78
2023/06/30 03:47:36;;;;;;;14.15;8.30;;;18.20;99.90;;;;;;5023174;28;20036;-78
2023/06/30 03:50:01;;;;;;;21.13;9.57;;;18.10;99.90;;;;;;5018476;28;20562;-77
2023/06/30 03:52:27;;;;;;;17.42;9.48;;;18.10;99.90;;;;;;5024030;28;20025;-74
2023/06/30 03:54:53;;;;;;;12.40;9.30;;;18.10;99.90;;;;;;5022777;28;20037;-77
2023/06/30 03:57:19;;;;;;;11.85;8.98;;;18.00;99.90;;;;;;5026871;28;20503;-74
2023/06/30 03:59:46;;;;;;;15.52;8.77;;;18.00;99.90;;;;;;5027603;28;20034;-78
2023/06/30 04:02:11;;;;;;;13.85;8.65;;;18.00;99.90;;;;;;5020268;28;20032;-76
2023/06/30 04:04:37;;;;;;;13.57;9.15;;;17.90;99.90;;;;;;5022855;28;20415;-72
2023/06/30 04:07:03;;;;;;;10.90;8.80;;;17.90;99.90;;;;;;5021867;28;20098;-74
2023/06/30 04:09:29;;;;;;;14.38;9.23;;;17.90;99.90;;;;;;5022064;28;20018;-77
2023/06/30 04:11:54;;;;;;;13.23;8.90;;;17.90;99.90;;;;;;5021015;28;20496;-78
2023/06/30 04:14:20;;;;;;;13.55;8.85;;;17.90;99.90;;;;;;5023254;28;20530;-77
2023/06/30 04:16:46;;;;;;;15.95;10.07;;;17.80;99.90;;;;;;5024581;28;20049;-76
2023/06/30 04:19:11;;;;;;;12.40;9.45;;;17.80;99.90;;;;;;5021786;28;20022;-76
2023/06/30 04:21:37;;;;;;;17.15;8.88;;;17.80;99.90;;;;;;5016668;28;20078;-74
2023/06/30 04:24:03;;;;;;;13.88;9.45;;;17.80;99.90;;;;;;5027236;28;20013;-77
2023/06/30 04:26:30;;;;;;;14.77;9.88;;;17.80;99.90;;;;;;5024944;28;20158;-77
2023/06/30 04:28:56;;;;;;;13.18;9.32;;;17.70;99.90;;;;;;5013337;28;20025;-77
2023/06/30 04:31:21;;;;;;;11.75;9.73;;;17.70;99.90;;;;;;5024833;28;20025;-78
2023/06/30 04:33:47;;;;;;;16.70;10.07;;;17.70;99.90;;;;;;5022188;28;20393;-70
2023/06/30 04:36:13;;;;;;;15.35;8.70;;;17.70;99.90;;;;;;5022621;28;20070;-78
2023/06/30 04:38:39;;;;;;;13.15;8.73;;;17.70;99.90;;;;;;5021453;28;20048;-76
2023/06/30 04:41:05;;;;;;;11.95;8.57;;;17.70;99.90;;;;;;5023479;28;20033;-77
2023/06/30 04:43:30;;;;;;;15.88;10.00;;;17.60;99.90;;;;;;5016507;28;20470;-78
2023/06/30 04:45:57;;;;;;;14.52;9.02;;;17.60;99.90;;;;;;5024756;28;20466;-78
2023/06/30 04:48:23;;;;;;;16.10;9.00;;;17.60;99.90;;;;;;5019141;28;20041;-78
2023/06/30 04:50:48;;;;;;;15.02;9.05;;;17.50;99.90;;;;;;5015530;28;20080;-77
2023/06/30 04:53:14;;;;;;;18.05;8.68;;;17.60;99.90;;;;;;5024861;28;20435;-77
2023/06/30 04:55:40;;;;;;;14.18;9.52;;;17.50;99.90;;;;;;5021946;28;20493;-77
2023/06/30 04:58:05;;;;;;;18.63;8.75;;;17.50;99.90;;;;;;5017389;28;20022;-79
2023/06/30 05:00:31;;;;;;;16.92;9.25;;;17.60;99.90;;;;;;5017973;28;20101;-78
2023/06/30 05:02:57;;;;;;;16.35;9.60;;;17.60;99.90;;;;;;5018449;28;20030;-79
2023/06/30 05:05:23;;;;;;;17.67;9.57;;;17.60;99.90;;;;;;5023115;28;20029;-78
2023/06/30 05:07:48;;;;;;;16.48;9.95;;;17.60;99.90;;;;;;5019139;28;20108;-77
2023/06/30 05:10:14;;;;;;;21.15;9.73;;;17.60;99.90;;;;;;5022987;28;20100;-77
2023/06/30 05:12:40;;;;;;;14.95;8.43;;;17.50;99.90;;;;;;5016909;28;20046;-78
2023/06/30 05:15:07;;;;;;;15.88;9.35;;;17.50;99.90;;;;;;5023697;28;20041;-79
2023/06/30 05:17:33;;;;;;;15.27;9.20;;;17.50;99.90;;;;;;5023715;28;20059;-79
2023/06/30 05:19:59;;;;;;;14.07;9.27;;;17.60;99.90;;;;;;5023733;28;20030;-73
2023/06/30 05:22:25;;;;;;;15.30;10.70;;;17.60;99.90;;;;;;5016139;28;20018;-78
2023/06/30 05:24:50;;;;;;;17.80;10.02;;;17.60;99.90;;;;;;5021537;28;20037;-78
2023/06/30 05:27:18;;;;;;;14.13;9.27;;;17.60;99.90;;;;;;5023985;28;20474;-78
2023/06/30 05:29:43;;;;;;;15.02;9.10;;;17.60;99.90;;;;;;5024234;28;20389;-78
2023/06/30 05:32:09;;;;;;;19.42;10.20;;;17.50;99.90;;;;;;5016328;28;20022;-78
2023/06/30 05:34:35;;;;;;;16.90;10.15;;;17.60;99.90;;;;;;5016261;28;20033;-79
2023/06/30 05:37:00;;;;;;;14.95;9.93;;;17.60;99.90;;;;;;5014339;28;20041;-78
2023/06/30 05:39:26;;;;;;;20.77;9.70;;;17.60;99.90;;;;;;5022632;28;20070;-79
2023/06/30 05:41:52;;;;;;;11.55;9.18;;;17.60;99.90;;;;;;5017926;28;20041;-79
2023/06/30 05:44:17;;;;;;;19.05;9.82;;;17.60;99.90;;;;;;5018731;28;20106;-66
2023/06/30 05:46:43;;;;;;;19.05;10.30;;;17.60;99.90;;;;;;5019618;28;20018;-66
2023/06/30 05:49:09;;;;;;;15.30;10.18;;;17.60;99.90;;;;;;5018924;28;20037;-66
2023/06/30 05:51:36;;;;;;;12.50;8.45;;;17.60;99.90;;;;;;5014890;28;20022;-66
2023/06/30 05:54:03;;;;;;;15.60;9.30;;;17.50;99.90;;;;;;5024155;28;20109;-66
2023/06/30 05:56:29;;;;;;;15.95;8.35;;;17.60;99.90;;;;;;5028804;28;20045;-66
2023/06/30 05:58:55;;;;;;;14.60;9.07;;;17.60;99.90;;;;;;5020231;28;20022;-65
2023/06/30 06:01:20;;;;;;;13.70;8.50;;;17.60;99.90;;;;;;5025599;28;20028;-65
2023/06/30 06:03:47;;;;;;;16.70;10.07;;;17.60;99.90;;;;;;5022401;28;20117;-66
2023/06/30 06:06:13;;;;;;;14.65;8.82;;;17.50;99.90;;;;;;5018891;28;20029;-66
2023/06/30 06:08:40;;;;;;;15.43;8.93;;;17.60;99.90;;;;;;5020486;28;20026;-66
2023/06/30 06:11:05;;;;;;;16.27;10.15;;;17.60;99.90;;;;;;5018706;28;20037;-66
2023/06/30 06:13:38;;;;;;;14.23;9.98;;;17.60;99.90;;;;;;5024376;28;20515;-66
2023/06/30 06:16:05;;;;;;;17.52;10.52;;;17.70;99.90;;;;;;5026821;28;20037;-65
2023/06/30 06:18:31;;;;;;;24.85;11.02;;;17.60;99.90;;;;;;5021007;28;20064;-67
2023/06/30 06:20:58;;;;;;;15.00;11.43;;;17.70;99.90;;;;;;5024014;28;20094;-66
2023/06/30 06:23:24;;;;;;;18.63;11.68;;;17.60;99.90;;;;;;5025409;28;20026;-71
2023/06/30 06:25:51;;;;;;;18.50;11.05;;;17.60;99.90;;;;;;5023187;28;20517;-65
2023/06/30 06:28:17;;;;;;;14.68;10.02;;;17.70;99.90;;;;;;5020104;28;20038;-66
2023/06/30 06:30:44;;;;;;;14.63;8.50;;;17.60;99.90;;;;;;5019996;28;20214;-68
2023/06/30 06:33:10;;;;;;;13.68;9.00;;;17.60;99.90;;;;;;5020616;28;20493;-68
2023/06/30 06:35:36;;;;;;;15.02;9.13;;;17.60;99.90;;;;;;5019274;28;20034;-65
2023/06/30 06:38:02;;;;;;;14.70;9.27;;;17.70;99.90;;;;;;5019412;28;20017;-66
2023/06/30 06:40:31;;;;;;;11.32;8.60;;;17.70;99.90;;;;;;5023147;28;20026;-65
2023/06/30 06:42:56;;;;;;;11.40;6.82;;;17.80;99.90;;;;;;5023442;28;20025;-64
2023/06/30 06:45:23;;;;;;;13.00;7.22;;;17.80;99.90;;;;;;5027750;28;20041;-66
2023/06/30 06:48:14;;;;;;;10.90;7.03;;;17.80;99.90;;;;;;5020534;28;20033;-65
2023/06/30 06:50:40;;;;;;;13.10;6.90;;;17.80;99.90;;;;;;5019943;28;20050;-64
2023/06/30 06:53:06;;;;;;;13.60;7.05;;;18.00;99.90;;;;;;5024265;28;20029;-65
2023/06/30 06:55:31;;;;;;;14.80;7.38;;;18.00;99.90;;;;;;5018449;28;20568;-65
2023/06/30 06:57:57;;;;;;;13.45;8.38;;;18.10;99.90;;;;;;5020980;28;20041;-65
2023/06/30 07:00:23;;;;;;;14.25;8.00;;;18.10;99.90;;;;;;5025299;28;20029;-66
2023/06/30 07:02:48;;;;;;;17.30;8.60;;;18.20;99.90;;;;;;5018690;28;20021;-65
2023/06/30 07:05:14;;;;;;;13.98;7.78;;;18.20;99.90;;;;;;5024338;28;20390;-65
2023/06/30 07:07:40;;;;;;;10.27;6.78;;;18.30;99.90;;;;;;5019213;28;20040;-65
2023/06/30 07:10:07;;;;;;;6.13;4.85;;;18.40;99.90;;;;;;5019320;28;20030;-68
2023/06/30 07:12:32;;;;;;;7.60;5.53;;;18.60;99.90;;;;;;5020205;28;20083;-67
2023/06/30 07:14:58;;;;;;;10.00;5.60;;;18.80;99.90;;;;;;5020052;28;20478;-67
2023/06/30 07:17:23;;;;;;;9.50;5.70;;;18.90;99.90;;;;;;5020442;28;20025;-65
2023/06/30 07:19:49;;;;;;;5.57;4.75;;;18.90;99.90;;;;;;5024839;28;20033;-65
2023/06/30 07:22:15;;;;;;;7.07;4.60;;;19.00;99.90;;;;;;5022383;28;20109;-65
2023/06/30 07:24:40;;;;;;;8.15;6.25;;;19.20;99.90;;;;;;5015837;28;20030;-65
2023/06/30 07:27:06;;;;;;;9.07;5.55;;;19.20;99.90;;;;;;5024281;28;20022;-66
2023/06/30 07:29:32;;;;;;;7.63;5.25;;;19.20;99.90;;;;;;5019623;28;20108;-65
2023/06/30 07:31:58;;;;;;;7.45;4.28;;;19.30;99.90;;;;;;5021420;28;20034;-65
2023/06/30 07:34:23;;;;;;;7.45;4.45;;;19.40;99.90;;;;;;5024627;28;20517;-65
2023/06/30 07:36:52;;;;;;;6.68;3.88;;;19.50;99.90;;;;;;5016803;28;20094;-66
2023/06/30 07:39:18;;;;;;;8.35;3.92;;;19.70;99.90;;;;;;5020821;28;20707;-65
2023/06/30 07:41:43;;;;;;;7.32;4.00;;;19.70;99.90;;;;;;5027141;28;20049;-66
2023/06/30 07:44:11;;;;;;;12.15;5.22;;;19.80;99.90;;;;;;5028400;28;20033;-66
2023/06/30 07:46:37;;;;;;;9.73;3.67;;;19.90;99.90;;;;;;5021325;28;20029;-66
2023/06/30 07:49:03;;;;;;;4.50;4.10;;;19.70;99.90;;;;;;5018888;28;20032;-67
2023/06/30 07:51:32;;;;;;;10.93;5.07;;;19.70;99.90;;;;;;5021821;28;20026;-66
2023/06/30 07:53:57;;;;;;;8.27;4.47;;;19.70;99.90;;;;;;5021284;28;20096;-66
2023/06/30 07:56:23;;;;;;;7.25;4.28;;;19.90;99.90;;;;;;5022859;28;20158;-66
2023/06/30 07:58:49;;;;;;;9.38;4.72;;;20.10;99.90;;;;;;5018292;28;20018;-66
2023/06/30 08:01:15;;;;;;;8.15;4.35;;;20.10;99.90;;;;;;5017296;28;20038;-72
2023/06/30 08:03:40;;;;;;;8.52;4.13;;;20.00;99.90;;;;;;5019957;28;20018;-65
2023/06/30 08:06:06;;;;;;;5.45;3.40;;;20.30;99.90;;;;;;5019355;28;20569;-69
2023/06/30 08:08:32;;;;;;;6.50;3.10;;;20.40;99.90;;;;;;5024812;28;20033;-71
2023/06/30 08:10:58;;;;;;;6.50;3.40;;;20.60;99.90;;;;;;5022079;28;20030;-70
2023/06/30 08:13:25;;;;;;;4.93;3.35;;;20.70;99.90;;;;;;5020628;28;20035;-65
2023/06/30 08:15:51;;;;;;;9.15;3.35;;;20.90;99.90;;;;;;5017544;28;20034;-66
2023/06/30 08:18:17;;;;;;;4.63;2.97;;;21.10;99.90;;;;;;5020157;28;20634;-66
2023/06/30 08:20:43;;;;;;;5.22;2.83;;;21.20;99.90;;;;;;5021583;28;20053;-66
2023/06/30 08:23:12;;;;;;;7.13;3.67;;;21.50;99.90;;;;;;5017844;28;20022;-66
2023/06/30 08:25:37;;;;;;;7.75;3.45;;;21.40;99.90;;;;;;5024581;28;20117;-66
2023/06/30 08:28:03;;;;;;;6.43;3.30;;;21.30;99.90;;;;;;5019308;28;20101;-66
2023/06/30 08:30:29;;;;;;;4.30;2.67;;;21.50;99.90;;;;;;5019066;28;20153;-67
2023/06/30 08:32:54;;;;;;;5.50;3.00;;;21.60;99.90;;;;;;5017472;28;20022;-66
2023/06/30 08:35:20;;;;;;;6.78;3.10;;;21.70;99.90;;;;;;5016457;28;20481;-65
2023/06/30 08:37:46;;;;;;;4.57;3.40;;;21.80;99.90;;;;;;5015581;28;20061;-70
2023/06/30 08:40:12;;;;;;;7.65;3.10;;;21.90;99.90;;;;;;5018773;28;20064;-66
2023/06/30 08:42:42;;;;;;;10.48;3.50;;;21.90;99.90;;;;;;5015523;28;20041;-65
2023/06/30 08:45:10;;;;;;;8.63;3.10;;;22.00;99.90;;;;;;5023778;28;20021;-67
2023/06/30 08:47:37;;;;;;;4.78;2.05;;;22.00;99.90;;;;;;5023154;28;20021;-66
2023/06/30 08:50:04;;;;;;;5.88;2.47;;;22.10;99.90;;;;;;5016361;28;20505;-66
2023/06/30 08:52:30;;;;;;;4.32;2.65;;;22.10;99.90;;;;;;5020086;28;20457;-67
2023/06/30 08:54:55;;;;;;;4.53;2.70;;;22.10;99.90;;;;;;5021574;28;20055;-68
2023/06/30 08:57:21;;;;;;;4.55;2.17;;;22.10;99.90;;;;;;5020622;28;20077;-66
2023/06/30 08:59:47;;;;;;;5.90;2.38;;;22.00;99.90;;;;;;5018307;28;20474;-68
2023/06/30 09:02:14;;;;;;;5.78;2.60;;;22.00;99.90;;;;;;5019614;28;20024;-66
2023/06/30 09:04:43;;;;;;;10.57;2.67;;;22.10;99.90;;;;;;5021517;28;20097;-66
2023/06/30 09:07:20;;;;;;;3.65;2.17;;;22.30;99.90;;;;;;5020109;28;20030;-66
2023/06/30 09:09:47;;;;;;;9.35;2.33;;;22.30;99.90;;;;;;5016765;28;20022;-65
2023/06/30 09:12:14;;;;;;;3.85;2.45;;;22.40;99.90;;;;;;5021721;28;20061;-66
2023/06/30 09:14:41;;;;;;;5.38;2.30;;;22.60;99.90;;;;;;5021021;28;20385;-66
2023/06/30 09:17:08;;;;;;;5.97;2.05;;;22.40;99.90;;;;;;5024955;28;20223;-66
2023/06/30 09:19:35;;;;;;;3.53;2.42;;;22.50;99.90;;;;;;5027498;28;20081;-68
2023/06/30 09:22:02;;;;;;;4.57;2.30;;;22.60;99.90;;;;;;5020827;28;20025;-65
2023/06/30 09:24:28;;;;;;;2.97;2.58;;;22.60;99.90;;;;;;5023655;28;20041;-66
2023/06/30 09:26:53;;;;;;;6.10;2.72;;;22.50;99.90;;;;;;5020603;28;20505;-71
2023/06/30 09:29:23;;;;;;;5.25;2.67;;;22.60;99.90;;;;;;5014122;28;20033;-68
2023/06/30 09:31:52;;;;;;;4.15;2.45;;;22.70;99.90;;;;;;5023918;28;20476;-68
2023/06/30 09:34:21;;;;;;;6.03;2.40;;;22.80;99.90;;;;;;5020219;28;20398;-66
2023/06/30 09:36:52;;;;;;;5.75;2.17;;;22.90;99.90;;;;;;5016572;28;20045;-69
2023/06/30 09:39:18;;;;;;;3.13;2.05;;;22.90;99.90;;;;;;5020106;28;20026;-66
2023/06/30 09:41:46;;;;;;;5.95;2.10;;;22.70;99.90;;;;;;5014193;28;20022;-66
2023/06/30 09:44:13;;;;;;;3.45;2.63;;;23.00;99.90;;;;;;5015706;28;20057;-67
2023/06/30 09:46:49;;;;;;;6.13;3.00;;;23.20;99.90;;;;;;5023538;28;20040;-67
2023/06/30 09:49:30;;;;;;;8.75;2.75;;;23.10;99.90;;;;;;5016850;28;20058;-66
2023/06/30 09:51:57;;;;;;;3.17;2.47;;;23.20;99.90;;;;;;5017514;28;20018;-69
2023/06/30 09:54:24;;;;;;;7.35;2.00;;;23.40;99.90;;;;;;5019270;28;20426;-67
2023/06/30 09:57:05;;;;;;;16.38;5.32;;;23.40;99.90;;;;;;5020840;28;20055;-66
2023/06/30 09:59:31;;;;;;;6.25;2.33;;;23.10;99.90;;;;;;5019076;28;20100;-66
2023/06/30 10:01:58;;;;;;;7.32;2.63;;;23.30;99.90;;;;;;5025663;28;20029;-69
2023/06/30 10:04:25;;;;;;;4.32;2.30;;;23.40;99.90;;;;;;5028861;28;20025;-67
2023/06/30 10:06:52;;;;;;;6.43;2.40;;;23.30;99.90;;;;;;5028544;28;20042;-67
2023/06/30 10:09:22;;;;;;;4.40;2.65;;;23.40;99.90;;;;;;5017004;28;20073;-68
2023/06/30 10:11:53;;;;;;;4.65;1.90;;;23.60;99.90;;;;;;5018554;28;20108;-66
2023/06/30 10:14:21;;;;;;;2.95;1.80;;;23.90;99.90;;;;;;5015255;28;20034;-68
2023/06/30 10:16:50;;;;;;;4.90;2.08;;;24.20;99.90;;;;;;5017536;28;20394;-66
2023/06/30 10:19:16;;;;;;;3.72;2.20;;;24.20;99.90;;;;;;5020223;28;20018;-66
2023/06/30 10:21:42;;;;;;;4.32;1.77;;;24.20;99.90;;;;;;5019075;28;20036;-69
2023/06/30 10:24:10;;;;;;;4.38;2.10;;;23.90;99.90;;;;;;5015733;28;20030;-72
2023/06/30 10:26:37;;;;;;;5.50;2.58;;;23.90;99.90;;;;;;5016280;28;20026;-68
2023/06/30 10:29:04;;;;;;;7.57;2.30;;;23.80;99.90;;;;;;5017779;28;20154;-68
2023/06/30 10:31:32;;;;;;;2.92;1.80;;;23.70;99.90;;;;;;5018478;28;20022;-66
2023/06/30 10:33:57;;;;;;;3.15;2.10;;;23.80;99.90;;;;;;5012641;28;20036;-66
2023/06/30 10:36:25;;;;;;;6.15;1.60;;;23.80;99.90;;;;;;5018435;28;20045;-66
2023/06/30 10:38:51;;;;;;;3.83;1.48;;;23.70;99.90;;;;;;5014940;28;20014;-67
2023/06/30 10:41:19;;;;;;;8.07;1.83;;;23.70;99.90;;;;;;5015922;28;20072;-67
2023/06/30 10:44:03;;;;;;;45.00;4.15;;;23.80;99.90;;;;;;5021007;28;20018;-66
2023/06/30 10:46:46;;;;;;;4.85;2.20;;;23.90;99.90;;;;;;5020208;28;20026;-66
2023/06/30 10:49:27;;;;;;;4.47;1.67;;;23.90;99.90;;;;;;5017116;28;20032;-66
2023/06/30 10:51:55;;;;;;;2.30;1.60;;;23.80;99.90;;;;;;5020942;28;20025;-66
2023/06/30 10:54:21;;;;;;;4.25;2.05;;;23.70;99.90;;;;;;5019148;28;20033;-66
2023/06/30 10:56:48;;;;;;;3.53;1.67;;;23.80;99.90;;;;;;5022220;28;20030;-68
2023/06/30 10:59:24;;;;;;;7.43;2.20;;;23.60;99.90;;;;;;5019519;28;20036;-67
2023/06/30 11:02:15;;;;;;;4.38;2.20;;;23.90;99.90;;;;;;5024781;28;20044;-66
2023/06/30 11:04:42;;;;;;;4.20;1.70;;;24.00;99.90;;;;;;5018985;28;20021;-66
2023/06/30 11:07:10;;;;;;;5.38;1.73;;;23.90;99.90;;;;;;5026546;28;20045;-66
2023/06/30 11:09:50;;;;;;;6.90;2.15;;;23.80;99.90;;;;;;5015151;28;20022;-68
2023/06/30 11:12:49;;;;;;;3.65;2.00;;;23.90;99.90;;;;;;5019921;28;20371;-67
2023/06/30 11:15:26;;;;;;;7.05;2.17;;;23.80;99.90;;;;;;5016657;28;20033;-67
2023/06/30 11:17:52;;;;;;;3.17;1.90;;;24.20;99.90;;;;;;5023051;28;20229;-67
2023/06/30 11:20:18;;;;;;;5.57;2.33;;;24.60;99.90;;;;;;5034949;28;20394;-67
2023/06/30 11:23:04;;;;;;;3.58;2.00;;;24.60;99.90;;;;;;5016516;28;20064;-68
2023/06/30 11:25:31;;;;;;;3.53;2.15;;;24.80;99.90;;;;;;5018429;28;20021;-66
2023/06/30 11:27:58;;;;;;;3.22;2.00;;;25.00;99.90;;;;;;5019662;28;20022;-66
2023/06/30 11:30:25;;;;;;;5.13;2.00;;;25.10;99.90;;;;;;5021480;28;20025;-66
2023/06/30 11:32:56;;;;;;;6.97;2.35;;;25.50;99.90;;;;;;5022715;28;20017;-66
2023/06/30 11:35:22;;;;;;;3.40;1.85;;;25.20;99.90;;;;;;5019308;28;20029;-66
2023/06/30 11:37:50;;;;;;;3.28;2.05;;;25.10;99.90;;;;;;5019173;28;20098;-66
2023/06/30 11:40:16;;;;;;;4.00;2.72;;;25.40;99.90;;;;;;5021679;28;20026;-66
2023/06/30 11:42:42;;;;;;;4.65;1.90;;;25.70;99.90;;;;;;5022937;28;20493;-66
2023/06/30 11:45:08;;;;;;;5.38;1.83;;;25.80;99.90;;;;;;5022395;28;20039;-66
2023/06/30 11:47:34;;;;;;;5.28;1.85;;;25.90;99.90;;;;;;5016006;28;20021;-67
2023/06/30 11:50:08;;;;;;;7.20;1.73;;;26.10;99.90;;;;;;5016438;28;20082;-66
2023/06/30 11:52:34;;;;;;;2.92;1.75;;;26.20;99.90;;;;;;5018222;28;20045;-66
2023/06/30 11:55:05;;;;;;;5.78;1.73;;;25.80;99.90;;;;;;5018150;28;20082;-67
2023/06/30 11:57:41;;;;;;;4.88;2.05;;;25.80;99.90;;;;;;5019182;28;20079;-70
2023/06/30 12:00:16;;;;;;;4.88;1.65;;;25.90;99.90;;;;;;5023676;28;20386;-72
2023/06/30 12:02:47;;;;;;;5.32;2.33;;;25.90;99.90;;;;;;5017149;28;20486;-70
2023/06/30 12:05:18;;;;;;;3.67;2.10;;;25.80;99.90;;;;;;5017355;28;20025;-66
2023/06/30 12:07:46;;;;;;;3.10;2.45;;;25.70;99.90;;;;;;5019183;28;20057;-68
2023/06/30 12:10:13;;;;;;;5.20;2.08;;;25.60;99.90;;;;;;5018831;28;20029;-67
2023/06/30 12:12:39;;;;;;;2.95;2.13;;;25.90;99.90;;;;;;5018571;28;20075;-67
2023/06/30 12:15:11;;;;;;;3.08;2.50;;;25.90;99.90;;;;;;5015466;28;20087;-66
2023/06/30 12:17:44;;;;;;;5.93;2.38;;;25.90;99.90;;;;;;5018970;28;20024;-67
2023/06/30 12:20:13;;;;;;;4.28;2.85;;;25.90;99.90;;;;;;5018599;28;20149;-68
2023/06/30 12:22:44;;;;;;;4.80;2.35;;;25.70;99.90;;;;;;5019620;28;20100;-65
2023/06/30 12:25:14;;;;;;;6.70;3.00;;;25.50;99.90;;;;;;5017183;28;20018;-66
2023/06/30 12:27:43;;;;;;;4.13;2.95;;;25.40;99.90;;;;;;5018584;28;20293;-66
2023/06/30 12:30:16;;;;;;;3.88;2.50;;;25.40;99.90;;;;;;5019234;28;20033;-66
2023/06/30 12:32:43;;;;;;;6.15;3.30;;;25.40;99.90;;;;;;5014250;28;20463;-66
2023/06/30 12:35:09;;;;;;;5.97;2.70;;;25.20;99.90;;;;;;5019950;28;20489;-67
2023/06/30 12:37:35;;;;;;;7.30;2.78;;;25.40;99.90;;;;;;5019585;28;20101;-66
2023/06/30 12:40:02;;;;;;;3.90;3.50;;;25.60;99.90;;;;;;5015313;28;20159;-67
2023/06/30 12:42:32;;;;;;;5.43;3.30;;;25.60;99.90;;;;;;5017694;28;20109;-66